createdAt,value
2024-02-02T00:01:17.935Z,100.00
2024-02-02T00:03:45.817Z,100.00
2024-02-02T00:06:12.602Z,100.00
2024-02-02T00:08:39.324Z,100.00
2024-02-02T00:11:06.949Z,100.00
2024-02-02T00:13:33.931Z,100.00
2024-02-02T00:16:00.674Z,100.00
2024-02-02T00:18:27.536Z,100.00
2024-02-02T00:20:55.605Z,100.00
2024-02-02T00:23:22.931Z,100.00
2024-02-02T00:25:49.719Z,100.00
2024-02-02T00:28:16.566Z,100.00
2024-02-02T00:30:43.295Z,100.00
2024-02-02T00:33:10.148Z,100.00
2024-02-02T00:35:36.933Z,100.00
2024-02-02T00:38:03.693Z,100.00
2024-02-02T00:40:30.552Z,100.00
2024-02-02T00:42:57.380Z,100.00
2024-02-02T00:45:25.092Z,100.00
2024-02-02T00:47:53.027Z,100.00
2024-02-02T00:50:19.837Z,100.00
2024-02-02T00:52:46.542Z,100.00
2024-02-02T00:55:13.333Z,100.00
2024-02-02T00:57:40.123Z,100.00
2024-02-02T01:00:07.493Z,100.00
2024-02-02T01:02:34.360Z,100.00
2024-02-02T01:05:01.048Z,100.00
2024-02-02T01:07:27.931Z,100.00
2024-02-02T01:09:55.746Z,100.00
2024-02-02T01:12:22.605Z,100.00
2024-02-02T01:14:49.399Z,100.00
2024-02-02T01:17:16.170Z,100.00
2024-02-02T01:19:42.961Z,100.00
2024-02-02T01:22:10.532Z,100.00
2024-02-02T01:24:37.300Z,100.00
2024-02-02T01:27:04.317Z,100.00
2024-02-02T01:29:31.037Z,100.00
2024-02-02T01:31:57.733Z,100.00
2024-02-02T01:34:24.918Z,100.00
2024-02-02T01:36:53.261Z,100.00
2024-02-02T01:39:20.034Z,100.00
2024-02-02T01:41:46.917Z,100.00
2024-02-02T01:44:13.576Z,100.00
2024-02-02T01:46:47.919Z,100.00
2024-02-02T01:49:15.281Z,100.00
2024-02-02T01:51:43.808Z,100.00
2024-02-02T01:54:11.327Z,100.00
2024-02-02T01:56:38.305Z,100.00
2024-02-02T01:59:06.211Z,100.00
2024-02-02T02:01:33.327Z,100.00
2024-02-02T02:04:00.345Z,100.00
2024-02-02T02:06:27.263Z,100.00
2024-02-02T02:08:54.093Z,100.00
2024-02-02T02:11:20.889Z,100.00
2024-02-02T02:13:47.734Z,100.00
2024-02-02T02:16:14.558Z,100.00
2024-02-02T02:18:52.280Z,100.00
2024-02-02T02:21:27.995Z,100.00
2024-02-02T02:23:55.938Z,100.00
2024-02-02T02:26:30.408Z,100.00
2024-02-02T02:28:57.138Z,100.00
2024-02-02T02:31:23.885Z,100.00
2024-02-02T02:33:50.745Z,100.00
2024-02-02T02:36:17.796Z,100.00
2024-02-02T02:38:47.606Z,100.00
2024-02-02T02:41:15.062Z,100.00
2024-02-02T02:43:41.844Z,100.00
2024-02-02T02:46:09.117Z,100.00
2024-02-02T02:48:38.214Z,100.00
2024-02-02T02:51:05.308Z,100.00
2024-02-02T02:53:32.080Z,100.00
2024-02-02T02:55:58.861Z,100.00
2024-02-02T02:58:25.681Z,100.00
2024-02-02T03:00:54.326Z,100.00
2024-02-02T03:03:21.154Z,100.00
2024-02-02T03:05:48.470Z,100.00
2024-02-02T03:08:15.364Z,100.00
2024-02-02T03:10:43.206Z,100.00
2024-02-02T03:13:10.978Z,100.00
2024-02-02T03:15:39.559Z,100.00
2024-02-02T03:18:06.762Z,100.00
2024-02-02T03:20:33.614Z,100.00
2024-02-02T03:23:00.986Z,100.00
2024-02-02T03:25:27.684Z,100.00
2024-02-02T03:27:54.354Z,100.00
2024-02-02T03:30:22.197Z,100.00
2024-02-02T03:32:50.480Z,100.00
2024-02-02T03:35:17.469Z,100.00
2024-02-02T03:37:44.240Z,100.00
2024-02-02T03:40:12.178Z,100.00
2024-02-02T03:42:38.938Z,100.00
2024-02-02T03:45:08.309Z,100.00
2024-02-02T03:47:35.246Z,100.00
2024-02-02T03:50:02.339Z,100.00
2024-02-02T03:52:29.234Z,100.00
2024-02-02T03:54:55.953Z,100.00
2024-02-02T03:57:22.899Z,100.00
2024-02-02T03:59:49.835Z,100.00
2024-02-02T04:02:16.620Z,100.00
2024-02-02T04:04:44.139Z,100.00
2024-02-02T04:07:11.060Z,100.00
2024-02-02T04:09:39.010Z,100.00
2024-02-02T04:12:06.051Z,100.00
2024-02-02T04:14:32.775Z,100.00
2024-02-02T04:16:59.451Z,100.00
2024-02-02T04:19:26.238Z,100.00
2024-02-02T04:21:52.981Z,100.00
2024-02-02T04:24:19.742Z,100.00
2024-02-02T04:26:46.503Z,100.00
2024-02-02T04:29:13.429Z,100.00
2024-02-02T04:31:41.108Z,100.00
2024-02-02T04:34:07.936Z,100.00
2024-02-02T04:36:34.783Z,100.00
2024-02-02T04:39:01.610Z,100.00
2024-02-02T04:41:28.319Z,100.00
2024-02-02T04:43:54.962Z,100.00
2024-02-02T04:46:21.661Z,100.00
2024-02-02T04:48:49.032Z,100.00
2024-02-02T04:51:16.050Z,100.00
2024-02-02T04:53:42.863Z,100.00
2024-02-02T04:56:10.106Z,100.00
2024-02-02T04:58:36.756Z,100.00
2024-02-02T05:01:03.473Z,100.00
2024-02-02T05:03:32.131Z,100.00
2024-02-02T05:05:59.213Z,100.00
2024-02-02T05:08:26.094Z,100.00
2024-02-02T05:10:52.868Z,100.00
2024-02-02T05:13:21.093Z,100.00
2024-02-02T05:15:47.763Z,100.00
2024-02-02T05:18:15.613Z,100.00
2024-02-02T05:20:42.570Z,100.00
2024-02-02T05:23:11.921Z,100.00
2024-02-02T05:25:38.645Z,100.00
2024-02-02T05:28:05.758Z,100.00
2024-02-02T05:30:33.071Z,100.00
2024-02-02T05:32:59.972Z,100.00
2024-02-02T05:35:27.150Z,100.00
2024-02-02T05:37:53.833Z,100.00
2024-02-02T05:40:20.616Z,100.00
2024-02-02T05:42:57.336Z,100.00
2024-02-02T05:45:24.085Z,100.00
2024-02-02T05:47:51.034Z,100.00
2024-02-02T05:50:17.791Z,100.00
2024-02-02T05:52:44.814Z,100.00
2024-02-02T05:55:11.607Z,100.00
2024-02-02T05:57:38.444Z,100.00
2024-02-02T06:00:06.037Z,100.00
2024-02-02T06:02:32.792Z,100.00
2024-02-02T06:04:59.502Z,100.00
2024-02-02T06:07:26.319Z,100.00
2024-02-02T06:09:53.098Z,100.00
2024-02-02T06:12:20.014Z,100.00
2024-02-02T06:14:46.781Z,100.00
2024-02-02T06:17:14.189Z,100.00
2024-02-02T06:19:43.010Z,100.00
2024-02-02T06:22:09.696Z,100.00
2024-02-02T06:24:36.373Z,100.00
2024-02-02T06:27:03.534Z,100.00
2024-02-02T06:29:30.675Z,100.00
2024-02-02T06:31:59.280Z,100.00
2024-02-02T06:34:26.235Z,100.00
2024-02-02T06:36:53.013Z,100.00
2024-02-02T06:39:21.566Z,100.00
2024-02-02T06:41:48.523Z,100.00
2024-02-02T06:44:15.197Z,100.00
2024-02-02T06:46:42.151Z,100.00
2024-02-02T06:49:08.941Z,100.00
2024-02-02T06:51:35.876Z,100.00
2024-02-02T06:54:03.333Z,100.00
2024-02-02T06:56:47.601Z,100.00
2024-02-02T06:59:15.690Z,100.00
2024-02-02T07:01:42.492Z,100.00
2024-02-02T07:04:14.098Z,100.00
2024-02-02T07:06:42.392Z,100.00
2024-02-02T07:09:21.512Z,100.00
2024-02-02T07:12:06.604Z,100.00
2024-02-02T07:14:42.313Z,100.00
2024-02-02T07:17:35.132Z,100.00
2024-02-02T07:20:05.614Z,100.00
2024-02-02T07:22:45.016Z,100.00
2024-02-02T07:25:18.661Z,100.00
2024-02-02T07:27:48.421Z,85.20
2024-02-02T07:30:38.091Z,96.71
2024-02-02T07:33:25.821Z,100.00
2024-02-02T07:35:54.810Z,100.00
2024-02-02T07:38:36.693Z,100.00
2024-02-02T07:41:08.605Z,100.00
2024-02-02T07:43:36.524Z,100.00
2024-02-02T07:46:09.116Z,100.00
2024-02-02T07:48:39.459Z,100.00
2024-02-02T07:51:07.257Z,100.00
2024-02-02T07:53:34.834Z,100.00
2024-02-02T07:56:02.237Z,100.00
2024-02-02T07:58:29.481Z,100.00
2024-02-02T08:00:56.322Z,100.00
2024-02-02T08:03:23.222Z,100.00
2024-02-02T08:05:50.205Z,100.00
2024-02-02T08:08:16.959Z,100.00
2024-02-02T08:10:44.644Z,100.00
2024-02-02T08:13:13.999Z,100.00
2024-02-02T08:15:41.061Z,100.00
2024-02-02T08:18:09.061Z,100.00
2024-02-02T08:20:36.219Z,100.00
2024-02-02T08:23:03.238Z,100.00
2024-02-02T08:25:30.395Z,100.00
2024-02-02T08:27:57.888Z,100.00
2024-02-02T08:30:27.493Z,100.00
2024-02-02T08:32:54.351Z,100.00
2024-02-02T08:35:25.799Z,100.00
2024-02-02T08:37:58.010Z,100.00
2024-02-02T08:40:44.191Z,100.00
2024-02-02T08:43:20.708Z,100.00
2024-02-02T08:46:14.890Z,100.00
2024-02-02T08:48:47.996Z,100.00
2024-02-02T08:51:24.730Z,100.00
2024-02-02T08:54:13.754Z,100.00
2024-02-02T08:56:40.488Z,100.00
2024-02-02T08:59:40.785Z,100.00
2024-02-02T09:02:07.997Z,100.00
2024-02-02T09:04:58.174Z,100.00
2024-02-02T09:07:24.936Z,100.00
2024-02-02T09:09:53.236Z,100.00
2024-02-02T09:12:20.228Z,100.00
2024-02-02T09:14:47.214Z,100.00
2024-02-02T09:17:14.270Z,100.00
2024-02-02T09:19:47.065Z,100.00
2024-02-02T09:22:18.962Z,100.00
2024-02-02T09:24:50.921Z,100.00
2024-02-02T09:27:38.051Z,100.00
2024-02-02T09:30:19.194Z,100.00
2024-02-02T09:32:46.381Z,100.00
2024-02-02T09:35:47.905Z,100.00
2024-02-02T09:38:14.622Z,100.00
2024-02-02T09:41:03.224Z,100.00
2024-02-02T09:43:30.128Z,100.00
2024-02-02T09:46:17.727Z,100.00
2024-02-02T09:49:18.418Z,100.00
2024-02-02T09:52:26.703Z,100.00
2024-02-02T09:55:02.076Z,100.00
2024-02-02T09:57:42.684Z,100.00
2024-02-02T10:00:36.810Z,100.00
2024-02-02T10:03:41.281Z,100.00
2024-02-02T10:06:26.558Z,100.00
2024-02-02T10:09:11.878Z,100.00
2024-02-02T10:11:57.075Z,100.00
2024-02-02T10:15:17.733Z,100.00
2024-02-02T10:17:50.466Z,100.00
2024-02-02T10:20:30.919Z,100.00
2024-02-02T10:23:25.029Z,100.00
2024-02-02T10:26:15.443Z,100.00
2024-02-02T10:29:04.730Z,100.00
2024-02-02T10:31:31.384Z,100.00
2024-02-02T10:34:04.294Z,100.00
2024-02-02T10:36:59.049Z,100.00
2024-02-02T10:39:46.981Z,100.00
2024-02-02T10:42:54.571Z,100.00
2024-02-02T10:45:48.146Z,100.00
2024-02-02T10:48:53.226Z,100.00
2024-02-02T10:51:20.001Z,100.00
2024-02-02T10:53:58.549Z,96.87
2024-02-02T10:56:30.624Z,90.71
2024-02-02T10:59:09.520Z,82.91
2024-02-02T11:01:43.208Z,72.50
2024-02-02T11:04:27.941Z,72.78
2024-02-02T11:07:21.265Z,69.76
2024-02-02T11:09:48.032Z,66.25
2024-02-02T11:12:30.706Z,66.68
2024-02-02T11:15:05.570Z,66.67
2024-02-02T11:17:35.995Z,64.47
2024-02-02T11:20:11.799Z,62.24
2024-02-02T11:22:44.645Z,61.17
2024-02-02T11:25:39.246Z,59.93
2024-02-02T11:28:15.264Z,59.11
2024-02-02T11:30:53.914Z,59.13
2024-02-02T11:33:40.282Z,58.85
2024-02-02T11:36:54.686Z,59.80
2024-02-02T11:39:45.109Z,58.73
2024-02-02T11:42:13.681Z,59.14
2024-02-02T11:44:42.307Z,59.75
2024-02-02T11:47:10.673Z,58.31
2024-02-02T11:49:44.805Z,57.81
2024-02-02T11:52:23.775Z,57.62
2024-02-02T11:55:02.731Z,57.82
2024-02-02T11:57:34.001Z,59.18
2024-02-02T12:00:03.901Z,57.98
2024-02-02T12:02:39.214Z,57.80
2024-02-02T12:05:25.157Z,57.46
2024-02-02T12:08:08.384Z,60.69
2024-02-02T12:10:43.985Z,64.76
2024-02-02T12:13:22.626Z,68.19
2024-02-02T12:15:53.979Z,72.56
2024-02-02T12:18:22.081Z,76.19
2024-02-02T12:20:50.514Z,76.54
2024-02-02T12:23:17.274Z,80.88
2024-02-02T12:25:45.966Z,78.16
2024-02-02T12:28:13.030Z,75.72
2024-02-02T12:30:39.887Z,68.53
2024-02-02T12:33:07.331Z,64.19
2024-02-02T12:35:34.460Z,63.43
2024-02-02T12:38:01.743Z,63.23
2024-02-02T12:40:28.854Z,61.55
2024-02-02T12:43:02.712Z,60.71
2024-02-02T12:45:32.579Z,61.20
2024-02-02T12:48:02.309Z,64.33
2024-02-02T12:50:29.064Z,64.70
2024-02-02T12:52:55.844Z,63.72
2024-02-02T12:55:22.753Z,61.10
2024-02-02T12:57:49.815Z,61.74
2024-02-02T13:00:17.557Z,61.77
2024-02-02T13:02:47.169Z,62.31
2024-02-02T13:05:18.719Z,64.78
2024-02-02T13:07:52.715Z,63.65
2024-02-02T13:10:35.790Z,63.67
2024-02-02T13:13:15.542Z,61.17
2024-02-02T13:15:43.081Z,60.58
2024-02-02T13:18:20.540Z,61.66
2024-02-02T13:20:50.666Z,61.92
2024-02-02T13:23:31.854Z,62.58
2024-02-02T13:26:02.086Z,62.01
2024-02-02T13:28:39.401Z,63.03
2024-02-02T13:31:16.506Z,61.82
2024-02-02T13:33:55.225Z,61.41
2024-02-02T13:36:24.048Z,60.30
2024-02-02T13:39:00.854Z,61.15
2024-02-02T13:41:28.695Z,62.61
2024-02-02T13:44:04.413Z,62.12
2024-02-02T13:46:32.686Z,64.12
2024-02-02T13:49:01.762Z,64.49
2024-02-02T13:51:29.926Z,65.49
2024-02-02T13:53:58.010Z,68.06
2024-02-02T13:56:29.900Z,70.66
2024-02-02T13:58:57.213Z,74.63
2024-02-02T14:01:28.787Z,78.72
2024-02-02T14:03:56.253Z,79.00
2024-02-02T14:06:23.494Z,79.80
2024-02-02T14:08:53.328Z,81.06
2024-02-02T14:11:28.574Z,81.16
2024-02-02T14:13:56.176Z,86.58
2024-02-02T14:16:27.446Z,88.48
2024-02-02T14:19:06.191Z,92.89
2024-02-02T14:21:35.342Z,95.04
2024-02-02T14:24:08.998Z,92.59
2024-02-02T14:26:57.087Z,91.58
2024-02-02T14:29:26.383Z,93.93
2024-02-02T14:31:56.991Z,96.20
2024-02-02T14:34:25.249Z,93.72
2024-02-02T14:36:53.022Z,95.72
2024-02-02T14:39:27.601Z,98.96
2024-02-02T14:41:55.624Z,100.00
2024-02-02T14:44:25.053Z,100.00
2024-02-02T14:46:51.959Z,100.00
2024-02-02T14:49:25.323Z,100.00
2024-02-02T14:51:56.013Z,100.00
2024-02-02T14:54:25.185Z,100.00
2024-02-02T14:56:53.062Z,100.00
2024-02-02T14:59:30.205Z,100.00
2024-02-02T15:01:57.787Z,100.00
2024-02-02T15:04:24.693Z,100.00
2024-02-02T15:06:52.153Z,100.00
2024-02-02T15:09:19.980Z,100.00
2024-02-02T15:11:46.885Z,100.00
2024-02-02T15:14:15.787Z,100.00
2024-02-02T15:16:42.622Z,100.00
2024-02-02T15:19:10.063Z,100.00
2024-02-02T15:21:37.059Z,100.00
2024-02-02T15:24:04.133Z,100.00
2024-02-02T15:26:35.994Z,100.00
2024-02-02T15:29:02.672Z,100.00
2024-02-02T15:31:29.368Z,100.00
2024-02-02T15:33:56.133Z,100.00
2024-02-02T15:36:23.853Z,100.00
2024-02-02T15:39:06.655Z,100.00
2024-02-02T15:41:38.981Z,100.00
2024-02-02T15:44:05.769Z,100.00
2024-02-02T15:46:34.520Z,100.00
2024-02-02T15:49:01.433Z,100.00
2024-02-02T15:51:31.891Z,100.00
2024-02-02T15:53:59.003Z,100.00
2024-02-02T15:56:26.081Z,100.00
2024-02-02T15:58:53.517Z,100.00
2024-02-02T16:01:21.016Z,100.00
2024-02-02T16:03:50.324Z,100.00
2024-02-02T16:06:23.064Z,100.00
2024-02-02T16:08:51.407Z,100.00
2024-02-02T16:11:20.268Z,100.00
2024-02-02T16:13:47.148Z,100.00
2024-02-02T16:16:13.900Z,100.00
2024-02-02T16:18:40.715Z,100.00
2024-02-02T16:21:07.564Z,100.00
2024-02-02T16:23:34.300Z,100.00
2024-02-02T16:26:01.030Z,100.00
2024-02-02T16:28:28.160Z,100.00
2024-02-02T16:30:56.239Z,100.00
2024-02-02T16:33:23.894Z,100.00
2024-02-02T16:35:51.288Z,100.00
2024-02-02T16:38:18.074Z,100.00
2024-02-02T16:40:44.868Z,100.00
2024-02-02T16:43:11.607Z,100.00
2024-02-02T16:45:38.454Z,100.00
2024-02-02T16:48:11.451Z,100.00
2024-02-02T16:50:38.490Z,100.00
2024-02-02T16:53:08.219Z,100.00
2024-02-02T16:55:35.253Z,100.00
2024-02-02T16:58:02.976Z,100.00
2024-02-02T17:00:30.872Z,100.00
2024-02-02T17:02:57.584Z,100.00
2024-02-02T17:05:24.260Z,100.00
2024-02-02T17:07:52.322Z,100.00
2024-02-02T17:10:19.451Z,100.00
2024-02-02T17:12:46.385Z,100.00
2024-02-02T17:15:14.361Z,100.00
2024-02-02T17:17:43.700Z,100.00
2024-02-02T17:20:12.407Z,100.00
2024-02-02T17:22:44.081Z,100.00
2024-02-02T17:25:12.164Z,100.00
2024-02-02T17:27:39.846Z,100.00
2024-02-02T17:30:10.499Z,100.00
2024-02-02T17:32:39.841Z,100.00
2024-02-02T17:35:08.941Z,100.00
2024-02-02T17:37:37.932Z,100.00
2024-02-02T17:40:05.785Z,100.00
2024-02-02T17:42:35.120Z,100.00
2024-02-02T17:45:01.922Z,100.00
2024-02-02T17:47:28.657Z,100.00
2024-02-02T17:49:57.254Z,100.00
2024-02-02T17:52:25.362Z,100.00
2024-02-02T17:54:54.241Z,100.00
2024-02-02T17:57:21.961Z,100.00
2024-02-02T17:59:48.714Z,100.00
2024-02-02T18:02:15.828Z,100.00
2024-02-02T18:04:42.615Z,100.00
2024-02-02T18:07:12.637Z,100.00
2024-02-02T18:09:40.126Z,100.00
2024-02-02T18:12:11.788Z,100.00
2024-02-02T18:14:40.352Z,100.00
2024-02-02T18:17:09.943Z,100.00
2024-02-02T18:19:36.733Z,100.00
2024-02-02T18:22:03.753Z,100.00
2024-02-02T18:24:30.768Z,100.00
2024-02-02T18:26:57.487Z,100.00
2024-02-02T18:29:26.982Z,100.00
2024-02-02T18:31:55.157Z,100.00
2024-02-02T18:34:22.565Z,100.00
2024-02-02T18:36:49.490Z,100.00
2024-02-02T18:39:18.929Z,100.00
2024-02-02T18:41:52.784Z,100.00
2024-02-02T18:44:19.505Z,100.00
2024-02-02T18:46:47.383Z,100.00
2024-02-02T18:49:15.243Z,100.00
2024-02-02T18:51:42.624Z,100.00
2024-02-02T18:54:12.422Z,100.00
2024-02-02T18:56:39.270Z,100.00
2024-02-02T18:59:05.959Z,100.00
2024-02-02T19:01:34.412Z,100.00
2024-02-02T19:04:02.789Z,100.00
2024-02-02T19:06:29.684Z,100.00
2024-02-02T19:08:56.802Z,100.00
2024-02-02T19:11:23.585Z,100.00
2024-02-02T19:13:50.394Z,100.00
2024-02-02T19:16:25.318Z,100.00
2024-02-02T19:18:52.985Z,100.00
2024-02-02T19:21:27.225Z,100.00
2024-02-02T19:23:57.470Z,100.00
2024-02-02T19:26:24.158Z,100.00
2024-02-02T19:28:52.449Z,100.00
2024-02-02T19:31:24.025Z,100.00
2024-02-02T19:33:51.752Z,100.00
2024-02-02T19:36:27.431Z,100.00
2024-02-02T19:38:54.968Z,100.00
2024-02-02T19:41:32.274Z,100.00
2024-02-02T19:43:59.938Z,100.00
2024-02-02T19:46:31.749Z,100.00
2024-02-02T19:49:00.665Z,100.00
2024-02-02T19:51:29.062Z,100.00
2024-02-02T19:53:57.719Z,100.00
2024-02-02T19:56:26.556Z,100.00
2024-02-02T19:58:55.689Z,100.00
2024-02-02T20:01:25.670Z,100.00
2024-02-02T20:03:52.589Z,100.00
2024-02-02T20:06:21.798Z,100.00
2024-02-02T20:08:49.689Z,100.00
2024-02-02T20:11:18.426Z,100.00
2024-02-02T20:13:45.879Z,100.00
2024-02-02T20:16:17.947Z,100.00
2024-02-02T20:18:44.906Z,100.00
2024-02-02T20:21:15.936Z,100.00
2024-02-02T20:23:45.409Z,100.00
2024-02-02T20:26:20.419Z,100.00
2024-02-02T20:28:52.802Z,100.00
2024-02-02T20:31:20.118Z,100.00
2024-02-02T20:33:52.191Z,100.00
2024-02-02T20:36:20.940Z,100.00
2024-02-02T20:38:48.014Z,100.00
2024-02-02T20:41:15.229Z,100.00
2024-02-02T20:43:45.869Z,100.00
2024-02-02T20:46:15.383Z,100.00
2024-02-02T20:48:42.363Z,100.00
2024-02-02T20:51:10.544Z,100.00
2024-02-02T20:53:38.053Z,100.00
2024-02-02T20:56:05.161Z,100.00
2024-02-02T20:58:31.866Z,100.00
2024-02-02T21:01:00.800Z,100.00
2024-02-02T21:03:28.037Z,100.00
2024-02-02T21:05:58.843Z,100.00
2024-02-02T21:08:30.255Z,100.00
2024-02-02T21:10:57.008Z,100.00
2024-02-02T21:13:24.735Z,100.00
2024-02-02T21:15:53.730Z,100.00
2024-02-02T21:18:21.486Z,100.00
2024-02-02T21:20:51.323Z,100.00
2024-02-02T21:23:19.368Z,100.00
2024-02-02T21:25:47.043Z,100.00
2024-02-02T21:28:14.898Z,100.00
2024-02-02T21:30:44.600Z,100.00
2024-02-02T21:33:11.926Z,100.00
2024-02-02T21:35:38.842Z,100.00
2024-02-02T21:38:05.601Z,100.00
2024-02-02T21:40:34.770Z,100.00
2024-02-02T21:43:01.511Z,100.00
2024-02-02T21:45:29.201Z,100.00
2024-02-02T21:47:57.143Z,100.00
2024-02-02T21:50:24.016Z,100.00
2024-02-02T21:52:50.953Z,100.00
2024-02-02T21:55:17.713Z,100.00
2024-02-02T21:57:44.648Z,100.00
2024-02-02T22:00:15.272Z,100.00
2024-02-02T22:02:42.266Z,100.00
2024-02-02T22:05:09.160Z,100.00
2024-02-02T22:07:38.705Z,100.00
2024-02-02T22:10:06.412Z,100.00
2024-02-02T22:12:33.432Z,100.00
2024-02-02T22:15:00.209Z,100.00
2024-02-02T22:17:32.943Z,100.00
2024-02-02T22:19:59.900Z,100.00
2024-02-02T22:22:29.191Z,100.00
2024-02-02T22:24:56.401Z,100.00
2024-02-02T22:27:24.200Z,100.00
2024-02-02T22:29:51.465Z,100.00
2024-02-02T22:32:21.199Z,100.00
2024-02-02T22:34:49.201Z,100.00
2024-02-02T22:37:16.202Z,100.00
2024-02-02T22:39:43.039Z,100.00
2024-02-02T22:42:10.967Z,100.00
2024-02-02T22:44:37.753Z,100.00
2024-02-02T22:47:05.914Z,100.00
2024-02-02T22:49:35.166Z,100.00
2024-02-02T22:52:03.290Z,100.00
2024-02-02T22:54:29.995Z,100.00
2024-02-02T22:56:56.771Z,100.00
2024-02-02T22:59:23.548Z,100.00
2024-02-02T23:01:50.406Z,100.00
2024-02-02T23:04:17.422Z,100.00
2024-02-02T23:06:44.468Z,100.00
2024-02-02T23:09:12.658Z,100.00
2024-02-02T23:11:39.416Z,100.00
2024-02-02T23:14:06.537Z,100.00
2024-02-02T23:16:33.688Z,100.00
2024-02-02T23:19:00.788Z,100.00
2024-02-02T23:21:27.597Z,100.00
2024-02-02T23:23:54.424Z,100.00
2024-02-02T23:26:22.319Z,100.00
2024-02-02T23:28:49.053Z,100.00
2024-02-02T23:31:15.745Z,100.00
2024-02-02T23:33:43.531Z,100.00
2024-02-02T23:36:10.530Z,100.00
2024-02-02T23:38:37.298Z,100.00
2024-02-02T23:41:05.426Z,100.00
2024-02-02T23:43:32.169Z,100.00
2024-02-02T23:45:58.926Z,100.00
2024-02-02T23:48:25.988Z,100.00
2024-02-02T23:50:52.763Z,100.00
2024-02-02T23:53:19.443Z,100.00
2024-02-02T23:55:46.153Z,100.00
2024-02-02T23:58:12.836Z,100.00
